Time;durP1;ratioP1;P1;durP2;ratioP2;P2;SDS_P1;SDS_P2;PMS_P1;PMS_P2;Temp;Humidity;BMP_temperature;BMP_pressure;BME280_temperature;BME280_humidity;BME280_pressure;Samples;Min_cycle;Max_cycle;Signal;HPM_P1;HPM_P2
2022/09/20 00:01:06;;;;;;;2.93;0.80;;;9.20;99.90;;;;;;5105525;28;20535;-82
2022/09/20 00:03:34;;;;;;;4.40;1.13;;;9.20;99.90;;;;;;5102708;28;20557;-84
2022/09/20 00:06:02;;;;;;;1.00;0.90;;;9.20;99.90;;;;;;5100163;28;20941;-82
2022/09/20 00:08:29;;;;;;;4.00;1.00;;;9.10;99.90;;;;;;5101026;28;20807;-83
2022/09/20 00:11:00;;;;;;;1.83;0.87;;;9.00;99.90;;;;;;5099018;28;20458;-82
2022/09/20 00:13:28;;;;;;;3.10;0.90;;;9.00;99.90;;;;;;5101771;28;20462;-82
2022/09/20 00:15:55;;;;;;;1.37;0.70;;;8.90;99.90;;;;;;5101228;28;20455;-85
2022/09/20 00:18:23;;;;;;;1.63;0.70;;;8.90;99.90;;;;;;5100878;28;20965;-82
2022/09/20 00:20:51;;;;;;;0.70;0.70;;;8.90;99.90;;;;;;5103964;28;20548;-82
2022/09/20 00:23:18;;;;;;;2.53;0.70;;;8.80;99.90;;;;;;5100951;28;20462;-84
2022/09/20 00:25:46;;;;;;;1.53;0.90;;;8.80;99.90;;;;;;5098933;28;20461;-82
2022/09/20 00:28:13;;;;;;;1.83;0.90;;;8.80;99.90;;;;;;5099138;28;20462;-85
2022/09/20 00:30:40;;;;;;;0.80;0.80;;;8.80;99.90;;;;;;5096682;28;20496;-82
2022/09/20 00:33:07;;;;;;;2.93;0.80;;;8.80;99.90;;;;;;5095122;28;20474;-82
2022/09/20 00:35:34;;;;;;;1.10;0.80;;;8.80;99.90;;;;;;5101774;28;20567;-83
2022/09/20 00:38:01;;;;;;;0.77;0.73;;;8.90;99.90;;;;;;5097891;28;20491;-82
2022/09/20 00:40:29;;;;;;;2.30;0.90;;;8.90;99.90;;;;;;5097320;27;20576;-81
2022/09/20 00:42:56;;;;;;;2.87;0.90;;;8.90;99.90;;;;;;5094871;28;20462;-82
2022/09/20 00:45:24;;;;;;;1.17;0.80;;;8.90;99.90;;;;;;5092557;28;20515;-83
2022/09/20 00:47:56;;;;;;;2.10;0.70;;;8.90;99.90;;;;;;5103614;28;20519;-82
2022/09/20 00:50:30;;;;;;;1.23;0.97;;;9.00;99.90;;;;;;5103548;28;20472;-82
2022/09/20 00:53:03;;;;;;;0.90;0.90;;;9.00;99.90;;;;;;5102971;27;20488;-82
2022/09/20 00:55:30;;;;;;;2.57;0.80;;;9.10;99.90;;;;;;5114870;27;20504;-83
2022/09/20 00:57:59;;;;;;;1.43;0.90;;;9.10;99.90;;;;;;5122481;27;20539;-81
2022/09/20 01:00:27;;;;;;;0.70;0.70;;;9.10;99.90;;;;;;5114357;27;20635;-82
2022/09/20 01:02:59;;;;;;;1.80;1.27;;;9.00;99.90;;;;;;5116053;27;20468;-81
2022/09/20 01:05:26;;;;;;;3.03;0.87;;;9.00;99.90;;;;;;5110342;27;21079;-82
2022/09/20 01:07:55;;;;;;;2.40;0.70;;;9.10;99.90;;;;;;5104464;28;20466;-83
2022/09/20 01:10:24;;;;;;;1.53;0.70;;;9.20;99.90;;;;;;5104994;28;20526;-82
2022/09/20 01:12:53;;;;;;;1.40;1.00;;;9.20;99.90;;;;;;5105402;27;20906;-83
2022/09/20 01:15:22;;;;;;;1.67;0.70;;;9.20;99.90;;;;;;5103438;27;20458;-83
2022/09/20 01:17:52;;;;;;;1.63;0.70;;;9.20;99.90;;;;;;5106956;27;20465;-82
2022/09/20 01:20:23;;;;;;;3.53;0.90;;;9.30;99.90;;;;;;5106563;28;21123;-83
2022/09/20 01:23:08;;;;;;;0.60;0.50;;;9.20;99.90;;;;;;5106331;27;20825;-83
2022/09/20 01:26:20;;;;;;;2.17;0.87;;;9.30;99.90;;;;;;5095755;28;21030;-81
2022/09/20 01:28:52;;;;;;;4.00;0.90;;;9.30;99.90;;;;;;5096392;27;20458;-82
2022/09/20 01:31:25;;;;;;;1.57;1.10;;;9.20;99.90;;;;;;5096973;28;20486;-82
2022/09/20 01:33:58;;;;;;;0.70;0.70;;;9.20;99.90;;;;;;5106139;27;20514;-84
2022/09/20 01:36:31;;;;;;;1.20;1.00;;;9.20;99.90;;;;;;5107271;27;20894;-82
2022/09/20 01:39:08;;;;;;;1.70;0.70;;;9.20;99.90;;;;;;5101903;28;20492;-82
2022/09/20 01:41:39;;;;;;;0.77;0.70;;;9.30;99.90;;;;;;5097504;27;20481;-83
2022/09/20 01:44:18;;;;;;;5.70;0.90;;;9.30;99.90;;;;;;5104807;27;21368;-83
2022/09/20 01:46:49;;;;;;;2.50;1.00;;;9.30;99.90;;;;;;5104496;27;21168;-82
2022/09/20 01:49:29;;;;;;;2.00;0.80;;;9.30;99.90;;;;;;5104168;27;20921;-83
2022/09/20 01:52:41;;;;;;;1.47;0.73;;;9.30;99.90;;;;;;5104322;28;20522;-83
2022/09/20 01:55:59;;;;;;;1.90;0.60;;;9.30;99.90;;;;;;5102898;28;20511;-81
2022/09/20 01:59:02;;;;;;;1.00;0.60;;;9.30;99.90;;;;;;5058779;28;20501;-83
2022/09/20 02:01:53;;;;;;;2.97;0.80;;;9.20;99.90;;;;;;5058418;28;20491;-84
2022/09/20 02:04:43;;;;;;;1.23;0.80;;;9.20;99.90;;;;;;5103960;27;20458;-83
2022/09/20 02:07:34;;;;;;;2.60;0.97;;;9.20;99.90;;;;;;5102212;27;20528;-84
2022/09/20 02:10:26;;;;;;;1.23;0.83;;;9.20;99.90;;;;;;5101564;28;20503;-84
2022/09/20 02:12:54;;;;;;;1.67;1.00;;;9.20;99.90;;;;;;5085785;28;20767;-83
2022/09/20 02:16:04;;;;;;;0.60;0.60;;;9.10;99.90;;;;;;5101486;27;20880;-84
2022/09/20 02:18:46;;;;;;;0.50;0.50;;;9.10;99.90;;;;;;5102732;28;20481;-83
2022/09/20 02:21:24;;;;;;;3.43;0.77;;;9.10;99.90;;;;;;5099494;27;21037;-83
2022/09/20 02:24:03;;;;;;;1.97;1.00;;;9.10;99.90;;;;;;5105014;27;20478;-84
2022/09/20 02:26:40;;;;;;;0.60;0.60;;;9.10;99.90;;;;;;5101885;28;20515;-83
2022/09/20 02:29:19;;;;;;;2.10;0.90;;;9.10;99.90;;;;;;5105328;28;21040;-83
2022/09/20 02:32:13;;;;;;;1.93;0.70;;;9.10;99.90;;;;;;5103127;28;20456;-82
2022/09/20 02:35:11;;;;;;;1.47;0.60;;;9.10;99.90;;;;;;5103835;27;20570;-81
2022/09/20 02:37:52;;;;;;;3.40;0.93;;;9.10;99.90;;;;;;5098014;28;20550;-79
2022/09/20 02:40:36;;;;;;;1.90;0.80;;;9.10;99.90;;;;;;5100893;28;20501;-81
2022/09/20 02:43:10;;;;;;;2.30;0.60;;;9.10;99.90;;;;;;5098835;28;20461;-82
2022/09/20 02:45:46;;;;;;;0.70;0.70;;;9.10;99.90;;;;;;5101182;28;20480;-82
2022/09/20 02:48:17;;;;;;;1.60;0.70;;;9.00;99.90;;;;;;5098373;27;20453;-82
2022/09/20 02:50:56;;;;;;;2.10;0.80;;;9.00;99.90;;;;;;5100996;28;20475;-80
2022/09/20 02:53:35;;;;;;;0.90;0.80;;;9.00;99.90;;;;;;5102362;27;20538;-82
2022/09/20 02:56:09;;;;;;;1.37;0.67;;;9.00;99.90;;;;;;5097647;27;20552;-82
2022/09/20 02:58:46;;;;;;;0.93;0.60;;;9.10;99.90;;;;;;5102046;27;20470;-81
2022/09/20 03:01:26;;;;;;;1.00;0.80;;;9.00;99.90;;;;;;5103124;27;21163;-82
2022/09/20 03:04:02;;;;;;;1.47;0.97;;;9.00;99.90;;;;;;5103351;27;20469;-81
2022/09/20 03:06:41;;;;;;;1.10;0.83;;;9.00;99.90;;;;;;5104955;28;20466;-83
2022/09/20 03:09:16;;;;;;;1.40;0.80;;;9.00;99.90;;;;;;5102075;27;20458;-80
2022/09/20 03:11:51;;;;;;;1.73;0.97;;;9.10;99.90;;;;;;5100246;28;20477;-81
2022/09/20 03:14:24;;;;;;;1.53;1.00;;;9.10;99.90;;;;;;5101870;27;20774;-82
2022/09/20 03:17:02;;;;;;;1.20;0.97;;;9.10;99.90;;;;;;5105895;27;20473;-82
2022/09/20 03:19:51;;;;;;;2.50;1.40;;;9.10;99.90;;;;;;5105293;27;20524;-81
2022/09/20 03:22:31;;;;;;;1.40;1.07;;;9.00;99.90;;;;;;5102181;27;21261;-82
2022/09/20 03:25:23;;;;;;;4.40;1.60;;;9.00;99.90;;;;;;5098931;28;20528;-82
2022/09/20 03:27:58;;;;;;;2.40;1.00;;;9.00;99.90;;;;;;5099812;27;20453;-82
2022/09/20 03:30:40;;;;;;;2.47;1.43;;;8.90;99.90;;;;;;5103194;27;20541;-80
2022/09/20 03:33:13;;;;;;;0.93;0.70;;;8.80;99.90;;;;;;5099020;27;20505;-81
2022/09/20 03:36:00;;;;;;;1.13;0.70;;;8.80;99.90;;;;;;5101387;28;20489;-81
2022/09/20 03:39:02;;;;;;;2.17;1.30;;;8.90;99.90;;;;;;5103393;28;20477;-82
2022/09/20 03:41:49;;;;;;;1.20;0.87;;;8.80;99.90;;;;;;5086494;28;21212;-83
2022/09/20 03:44:32;;;;;;;8.47;1.10;;;8.70;99.90;;;;;;5102235;28;20454;-82
2022/09/20 03:47:08;;;;;;;2.00;1.03;;;8.70;99.90;;;;;;5097929;28;20527;-82
2022/09/20 03:49:55;;;;;;;0.90;0.90;;;8.70;99.90;;;;;;5098477;28;20461;-83
2022/09/20 03:53:08;;;;;;;2.70;0.97;;;8.70;99.90;;;;;;5089582;28;20960;-83
2022/09/20 03:55:57;;;;;;;2.40;1.10;;;8.70;99.90;;;;;;5086672;28;21441;-83
2022/09/20 03:58:40;;;;;;;0.90;0.90;;;8.60;99.90;;;;;;5099299;28;20463;-82
2022/09/20 04:01:28;;;;;;;2.60;1.07;;;8.60;99.90;;;;;;5101489;28;22004;-84
2022/09/20 04:04:03;;;;;;;3.03;1.20;;;8.60;99.90;;;;;;5101829;28;21022;-84
2022/09/20 04:07:03;;;;;;;3.40;2.00;;;8.60;99.90;;;;;;5094447;28;20466;-82
2022/09/20 04:09:57;;;;;;;2.60;1.50;;;8.60;99.90;;;;;;5093624;28;20807;-84
2022/09/20 04:12:36;;;;;;;3.00;1.73;;;8.60;99.90;;;;;;5099586;28;20642;-82
2022/09/20 04:15:17;;;;;;;3.80;2.20;;;8.60;99.90;;;;;;5105081;28;20464;-81
2022/09/20 04:17:52;;;;;;;2.40;2.03;;;8.60;99.90;;;;;;5097913;28;20458;-82
2022/09/20 04:20:28;;;;;;;1.27;0.90;;;8.70;99.90;;;;;;5101108;28;20457;-82
2022/09/20 04:22:59;;;;;;;4.33;2.00;;;8.60;99.90;;;;;;5100435;27;20509;-82
2022/09/20 04:25:33;;;;;;;2.33;1.70;;;8.70;99.90;;;;;;5107169;27;20466;-82
2022/09/20 04:28:08;;;;;;;0.77;0.77;;;8.70;99.90;;;;;;5103057;28;20470;-83
2022/09/20 04:30:42;;;;;;;1.20;0.90;;;8.70;99.90;;;;;;5105398;27;21039;-82
2022/09/20 04:33:15;;;;;;;2.10;1.60;;;8.70;99.90;;;;;;5105881;28;20473;-81
2022/09/20 04:38:37;;;;;;;1.87;1.30;;;8.60;99.90;;;;;;5100515;27;20472;-84
2022/09/20 04:41:48;;;;;;;4.30;2.40;;;8.60;99.90;;;;;;5117584;27;20470;-83
2022/09/20 04:44:44;;;;;;;1.30;1.00;;;8.60;99.90;;;;;;5110961;28;21022;-84
2022/09/20 04:47:50;;;;;;;1.77;0.93;;;8.60;99.90;;;;;;5107666;27;20461;-84
2022/09/20 04:50:43;;;;;;;1.43;1.10;;;8.60;99.90;;;;;;5080473;28;20510;-84
2022/09/20 04:53:46;;;;;;;1.30;0.80;;;8.50;99.90;;;;;;5098051;28;20466;-84
2022/09/20 04:56:21;;;;;;;1.23;1.13;;;8.50;99.90;;;;;;5060098;27;20461;-84
2022/09/20 04:59:00;;;;;;;3.37;1.40;;;8.50;99.90;;;;;;5103495;28;20461;-85
2022/09/20 05:02:02;;;;;;;3.50;2.10;;;8.50;99.90;;;;;;5102169;28;21119;-84
2022/09/20 05:05:12;;;;;;;3.57;1.63;;;8.50;99.90;;;;;;5103560;27;20543;-87
2022/09/20 05:08:15;;;;;;;2.10;0.80;;;8.50;99.90;;;;;;5104039;27;20469;-85
2022/09/20 05:11:13;;;;;;;1.83;1.67;;;8.50;99.90;;;;;;5071481;27;20482;-82
2022/09/20 05:13:55;;;;;;;1.10;1.00;;;8.50;99.90;;;;;;5066754;27;20458;-85
2022/09/20 05:16:30;;;;;;;5.90;2.03;;;8.50;99.90;;;;;;5102508;27;20489;-81
2022/09/20 05:19:26;;;;;;;2.30;1.70;;;8.50;99.90;;;;;;5087332;28;20979;-82
2022/09/20 05:22:20;;;;;;;2.60;2.10;;;8.50;99.90;;;;;;5101401;28;20477;-80
2022/09/20 05:25:20;;;;;;;2.10;0.80;;;8.50;99.90;;;;;;5106965;27;20465;-81
2022/09/20 05:27:54;;;;;;;1.03;0.70;;;8.60;99.90;;;;;;5105821;27;20462;-81
2022/09/20 06:20:25;;;;;;;3.13;1.43;;;8.70;99.90;;;;;;5049801;28;20623;-75
2022/09/20 06:22:54;;;;;;;3.47;1.53;;;9.30;99.90;;;;;;5046705;28;20554;-75
2022/09/20 06:25:26;;;;;;;2.77;2.37;;;9.40;99.90;;;;;;5033816;28;20971;-75
2022/09/20 06:27:58;;;;;;;1.20;1.10;;;9.40;99.90;;;;;;5045366;28;20493;-75
2022/09/20 06:30:28;;;;;;;2.27;1.53;;;9.50;99.90;;;;;;5042287;28;20472;-75
2022/09/20 06:32:57;;;;;;;3.33;1.33;;;9.50;99.90;;;;;;5047128;28;21004;-75
2022/09/20 06:35:33;;;;;;;1.90;1.53;;;9.50;99.90;;;;;;5026292;28;20962;-75
2022/09/20 06:43:40;;;;;;;4.67;3.13;;;9.50;99.90;;;;;;5030322;28;20509;-75
2022/09/20 06:46:07;;;;;;;5.30;2.40;;;9.50;99.90;;;;;;5036560;28;20473;-75
2022/09/20 06:48:38;;;;;;;3.87;2.90;;;9.50;99.90;;;;;;5030931;28;20540;-75
2022/09/20 06:51:08;;;;;;;27.43;18.57;;;9.50;99.90;;;;;;5032602;28;20469;-75
2022/09/20 06:53:39;;;;;;;15.20;12.20;;;9.60;99.90;;;;;;5046618;28;20924;-75
2022/09/20 06:56:08;;;;;;;5.70;5.10;;;9.60;99.90;;;;;;5049962;28;21128;-75
2022/09/20 06:58:35;;;;;;;18.17;13.30;;;9.70;99.90;;;;;;5036568;28;20465;-75
2022/09/20 07:01:02;;;;;;;26.03;18.67;;;9.80;99.90;;;;;;5021376;27;20474;-75
2022/09/20 07:03:30;;;;;;;23.97;18.77;;;9.80;99.90;;;;;;5017345;28;20460;-74
2022/09/20 07:05:57;;;;;;;41.77;27.17;;;9.90;99.90;;;;;;5025770;28;20467;-75
2022/09/20 07:08:29;;;;;;;4.47;3.77;;;10.10;99.90;;;;;;5026664;28;20493;-77
2022/09/20 07:10:56;;;;;;;7.10;4.10;;;10.20;99.90;;;;;;5037054;28;20544;-75
2022/09/20 07:13:24;;;;;;;13.27;9.53;;;10.40;99.90;;;;;;5035467;28;21111;-75
2022/09/20 07:15:50;;;;;;;19.67;14.40;;;10.40;99.90;;;;;;5042076;28;20614;-75
2022/09/20 07:18:17;;;;;;;1.80;1.70;;;10.40;99.90;;;;;;5036916;27;20950;-75
2022/09/20 07:20:44;;;;;;;11.27;2.37;;;10.30;99.90;;;;;;5021398;28;20580;-75
2022/09/20 07:23:11;;;;;;;3.17;1.80;;;10.50;99.90;;;;;;5018039;28;21034;-75
2022/09/20 07:25:39;;;;;;;1.83;1.73;;;10.40;99.90;;;;;;5022202;28;20473;-75
2022/09/20 07:28:06;;;;;;;2.00;1.50;;;10.40;99.90;;;;;;5016707;28;20481;-75
2022/09/20 07:30:33;;;;;;;10.83;9.97;;;10.40;99.90;;;;;;5023295;28;20546;-75
2022/09/20 07:33:01;;;;;;;1.00;0.90;;;10.30;99.90;;;;;;5011964;28;20564;-75
2022/09/20 07:35:28;;;;;;;2.33;1.77;;;10.20;99.90;;;;;;5020759;28;20465;-75
2022/09/20 07:37:58;;;;;;;2.70;2.60;;;10.20;99.90;;;;;;5025164;28;20470;-75
2022/09/20 07:40:26;;;;;;;2.80;2.60;;;10.20;99.90;;;;;;5032689;28;20545;-75
2022/09/20 07:42:56;;;;;;;1.73;1.63;;;10.20;99.90;;;;;;5021010;28;20458;-75
2022/09/20 07:45:23;;;;;;;5.00;2.77;;;10.10;99.90;;;;;;5032154;28;20559;-75
2022/09/20 07:47:51;;;;;;;3.27;2.43;;;10.20;99.90;;;;;;5020493;28;20468;-75
2022/09/20 07:50:18;;;;;;;1.77;1.67;;;10.20;99.90;;;;;;5014771;28;20462;-74
2022/09/20 07:52:45;;;;;;;2.30;1.40;;;10.60;99.90;;;;;;5013831;28;20588;-74
2022/09/20 07:55:12;;;;;;;1.27;1.17;;;11.00;99.90;;;;;;5019393;28;20542;-74
2022/09/20 07:57:39;;;;;;;1.40;1.30;;;11.10;99.90;;;;;;5014976;28;20469;-74
2022/09/20 08:00:10;;;;;;;1.70;1.57;;;11.20;99.90;;;;;;5017662;28;20464;-74
2022/09/20 08:02:37;;;;;;;1.93;1.70;;;11.20;99.90;;;;;;5012066;28;20882;-76
2022/09/20 08:05:05;;;;;;;3.87;1.10;;;11.10;99.90;;;;;;5010496;28;20565;-74
2022/09/20 08:07:32;;;;;;;2.67;2.43;;;11.10;99.90;;;;;;5015464;28;20469;-74
2022/09/20 08:09:59;;;;;;;1.33;1.23;;;11.10;99.90;;;;;;5022953;27;20477;-74
2022/09/20 08:12:26;;;;;;;2.23;2.03;;;11.10;99.90;;;;;;5008075;28;20470;-75
2022/09/20 08:14:53;;;;;;;2.30;1.50;;;11.00;99.90;;;;;;5017907;28;20465;-74
2022/09/20 08:17:22;;;;;;;2.23;0.90;;;10.90;99.90;;;;;;5010229;28;20745;-74
2022/09/20 08:19:52;;;;;;;1.60;1.20;;;10.70;99.90;;;;;;5010888;28;20488;-74
2022/09/20 08:22:19;;;;;;;2.93;1.10;;;10.40;99.90;;;;;;5027403;28;20465;-74
2022/09/20 08:24:46;;;;;;;1.97;0.80;;;10.00;99.90;;;;;;5034231;28;20973;-75
2022/09/20 08:27:12;;;;;;;2.20;0.80;;;9.50;99.90;;;;;;5053967;27;20461;-75
2022/09/20 08:29:40;;;;;;;8.10;0.90;;;9.30;99.90;;;;;;5056592;27;20978;-75
2022/09/20 08:32:07;;;;;;;1.67;0.60;;;9.20;99.90;;;;;;5033843;27;20461;-75
2022/09/20 08:34:35;;;;;;;0.50;0.40;;;9.00;99.90;;;;;;5012781;27;20488;-75
2022/09/20 08:37:02;;;;;;;3.80;0.50;;;9.00;99.90;;;;;;5008857;28;20483;-75
2022/09/20 08:39:28;;;;;;;1.10;0.60;;;9.00;99.90;;;;;;5015633;28;20458;-75
2022/09/20 08:42:01;;;;;;;0.97;0.77;;;9.10;99.90;;;;;;5020955;28;20464;-75
2022/09/20 08:44:32;;;;;;;0.63;0.63;;;9.20;99.90;;;;;;5018354;28;20561;-75
2022/09/20 08:47:06;;;;;;;0.97;0.80;;;9.30;99.90;;;;;;5032774;28;20932;-75
2022/09/20 08:49:35;;;;;;;0.90;0.63;;;9.40;99.90;;;;;;5020571;28;20580;-75
2022/09/20 08:52:04;;;;;;;0.80;0.70;;;9.60;99.90;;;;;;5015868;28;20553;-75
2022/09/20 08:54:32;;;;;;;1.30;0.70;;;9.80;99.90;;;;;;5043301;27;20457;-75
2022/09/20 08:57:04;;;;;;;1.40;0.60;;;10.00;99.90;;;;;;5037732;28;20637;-75
2022/09/20 08:59:31;;;;;;;2.23;1.00;;;10.30;99.90;;;;;;5027579;28;20446;-75
2022/09/20 09:01:58;;;;;;;1.87;0.90;;;10.70;99.90;;;;;;5032077;28;20450;-76
2022/09/20 09:04:35;;;;;;;1.27;1.00;;;11.00;99.90;;;;;;5019593;28;20465;-76
2022/09/20 09:07:04;;;;;;;1.00;0.90;;;11.30;99.90;;;;;;5021958;28;20540;-76
2022/09/20 09:09:41;;;;;;;2.13;0.83;;;11.30;99.90;;;;;;5021566;28;20584;-76
2022/09/20 09:12:17;;;;;;;1.77;1.00;;;11.10;99.90;;;;;;5012309;28;20553;-76
2022/09/20 09:14:53;;;;;;;4.10;0.80;;;11.20;99.90;;;;;;5022855;28;20490;-76
2022/09/20 09:17:22;;;;;;;0.73;0.67;;;11.20;99.90;;;;;;5019943;28;20587;-76
2022/09/20 09:19:51;;;;;;;0.70;0.70;;;11.30;99.90;;;;;;5016629;28;20951;-76
2022/09/20 09:22:22;;;;;;;2.90;0.70;;;11.20;99.90;;;;;;5020142;28;20548;-76
2022/09/20 09:25:27;;;;;;;0.93;0.80;;;11.30;99.90;;;;;;5024184;28;20878;-76
2022/09/20 09:27:57;;;;;;;0.70;0.70;;;11.50;99.90;;;;;;5011181;28;20679;-76
2022/09/20 09:30:26;;;;;;;1.63;0.63;;;11.50;99.90;;;;;;5021382;28;20591;-76
2022/09/20 09:33:14;;;;;;;0.80;0.70;;;11.70;99.90;;;;;;5022886;28;20636;-76
2022/09/20 09:35:41;;;;;;;2.13;0.70;;;11.80;99.90;;;;;;5020174;28;20541;-76
2022/09/20 09:38:17;;;;;;;1.00;0.70;;;11.60;99.90;;;;;;5022524;28;20891;-76
2022/09/20 09:40:50;;;;;;;1.43;0.90;;;11.60;99.90;;;;;;5022573;28;20447;-76
2022/09/20 09:43:25;;;;;;;0.53;0.53;;;11.90;99.90;;;;;;5014425;28;20807;-76
2022/09/20 09:45:54;;;;;;;1.73;0.70;;;12.40;99.90;;;;;;5019658;28;20467;-76
2022/09/20 09:48:24;;;;;;;1.63;0.50;;;12.30;99.90;;;;;;5018279;28;20459;-76
2022/09/20 09:51:09;;;;;;;1.67;0.60;;;12.20;99.90;;;;;;5021088;28;20551;-76
2022/09/20 09:53:38;;;;;;;0.70;0.60;;;12.20;99.90;;;;;;5016077;28;20682;-75
2022/09/20 09:56:25;;;;;;;0.50;0.50;;;12.30;99.90;;;;;;5021725;28;20555;-76
2022/09/20 09:59:14;;;;;;;0.60;0.50;;;13.00;99.90;;;;;;5018677;28;20455;-76
2022/09/20 10:01:48;;;;;;;0.80;0.53;;;13.00;99.90;;;;;;5021592;28;20550;-76
2022/09/20 10:04:20;;;;;;;1.70;0.60;;;13.00;99.90;;;;;;5016576;28;20467;-76
2022/09/20 10:06:53;;;;;;;0.50;0.50;;;12.90;99.90;;;;;;5022677;28;20467;-76
2022/09/20 10:09:36;;;;;;;1.80;0.50;;;12.90;99.90;;;;;;5015664;28;20579;-76
2022/09/20 10:12:27;;;;;;;0.70;0.60;;;12.60;99.90;;;;;;5022188;28;20468;-75
2022/09/20 10:15:05;;;;;;;2.93;0.97;;;12.40;99.90;;;;;;5021495;28;20482;-75
2022/09/20 10:17:51;;;;;;;0.70;0.50;;;12.10;99.90;;;;;;5018446;28;20886;-75
2022/09/20 10:20:52;;;;;;;1.10;0.80;;;12.30;99.90;;;;;;5015290;28;20465;-75
2022/09/20 10:23:27;;;;;;;0.97;0.60;;;12.70;99.90;;;;;;5016389;28;20490;-75
2022/09/20 10:26:05;;;;;;;0.60;0.40;;;12.90;99.90;;;;;;5033598;28;20556;-75
2022/09/20 10:28:49;;;;;;;0.50;0.43;;;12.70;99.90;;;;;;5026905;28;20470;-75
2022/09/20 10:31:30;;;;;;;0.50;0.40;;;12.30;99.90;;;;;;5033668;28;21253;-75
2022/09/20 10:34:14;;;;;;;0.90;0.50;;;11.30;99.90;;;;;;5013467;28;20479;-75
2022/09/20 10:36:48;;;;;;;1.07;0.40;;;10.70;99.90;;;;;;5020221;28;20963;-75
2022/09/20 10:39:24;;;;;;;0.63;0.40;;;10.60;99.90;;;;;;5022189;28;20562;-75
2022/09/20 10:45:09;;;;;;;1.20;0.50;;;10.60;99.90;;;;;;5017751;28;20488;-75
2022/09/20 10:47:46;;;;;;;0.60;0.40;;;10.60;99.90;;;;;;5025049;28;20879;-75
2022/09/20 10:50:28;;;;;;;0.40;0.40;;;10.50;99.90;;;;;;5034037;28;20978;-76
2022/09/20 10:53:22;;;;;;;0.60;0.37;;;10.60;99.90;;;;;;5030855;28;21753;-75
2022/09/20 10:55:58;;;;;;;0.50;0.40;;;11.00;99.90;;;;;;5011559;28;21304;-76
2022/09/20 10:58:55;;;;;;;2.00;0.67;;;11.20;99.90;;;;;;5014540;28;20465;-76
2022/09/20 11:01:30;;;;;;;0.90;0.40;;;11.50;99.90;;;;;;5039079;27;20479;-76
2022/09/20 11:04:14;;;;;;;1.10;0.50;;;11.60;99.90;;;;;;5026099;28;20532;-76
2022/09/20 11:06:51;;;;;;;1.17;0.60;;;11.60;99.90;;;;;;5021402;28;20823;-76
2022/09/20 11:09:23;;;;;;;0.70;0.50;;;11.40;99.90;;;;;;5013197;28;20615;-76
2022/09/20 11:11:54;;;;;;;2.20;0.60;;;11.40;99.90;;;;;;5012107;28;20470;-77
2022/09/20 11:14:32;;;;;;;0.60;0.40;;;11.70;99.90;;;;;;5023281;28;20542;-76
2022/09/20 11:17:03;;;;;;;0.50;0.40;;;12.00;99.90;;;;;;5018126;28;21107;-76
2022/09/20 11:19:37;;;;;;;0.70;0.50;;;12.30;99.90;;;;;;5020176;27;20489;-76
2022/09/20 11:22:10;;;;;;;0.80;0.53;;;12.30;99.90;;;;;;5015168;27;20550;-75
2022/09/20 11:24:41;;;;;;;3.37;0.77;;;12.60;99.90;;;;;;5033165;28;20451;-75
2022/09/20 11:27:15;;;;;;;2.70;0.50;;;12.30;99.90;;;;;;5034660;27;20604;-75
2022/09/20 11:29:49;;;;;;;0.40;0.40;;;11.80;99.90;;;;;;5031795;27;20493;-75
2022/09/20 11:32:21;;;;;;;1.03;0.37;;;11.60;99.90;;;;;;5026745;28;20961;-79
2022/09/20 11:34:54;;;;;;;3.23;0.40;;;11.30;99.90;;;;;;5031713;27;20545;-76
2022/09/20 11:37:22;;;;;;;2.30;0.30;;;11.40;99.90;;;;;;5016178;28;20475;-75
2022/09/20 11:39:53;;;;;;;1.67;0.40;;;11.30;99.90;;;;;;5015331;28;20549;-75
2022/09/20 11:42:23;;;;;;;2.67;0.40;;;11.60;99.90;;;;;;5016348;27;20467;-74
2022/09/20 11:44:52;;;;;;;1.43;0.37;;;11.60;99.90;;;;;;5017881;28;20473;-74
2022/09/20 11:47:26;;;;;;;3.50;0.40;;;11.80;99.90;;;;;;5015446;28;20466;-75
2022/09/20 11:50:18;;;;;;;1.63;0.47;;;11.80;99.90;;;;;;5033223;28;20491;-74
2022/09/20 11:53:03;;;;;;;0.63;0.37;;;11.60;99.90;;;;;;5022150;28;20974;-75
2022/09/20 11:55:42;;;;;;;0.50;0.30;;;11.10;99.90;;;;;;5009608;28;20552;-75
2022/09/20 11:58:14;;;;;;;2.10;0.40;;;10.90;99.90;;;;;;5024234;28;20488;-74
2022/09/20 12:00:47;;;;;;;1.50;0.30;;;10.70;99.90;;;;;;5028317;28;20948;-74
2022/09/20 12:03:35;;;;;;;0.70;0.30;;;10.70;99.90;;;;;;5021906;28;20539;-74
2022/09/20 12:06:04;;;;;;;0.97;0.30;;;10.60;99.90;;;;;;5031312;28;20583;-74
2022/09/20 12:08:35;;;;;;;3.17;0.33;;;10.60;99.90;;;;;;5022400;28;20441;-74
2022/09/20 12:11:05;;;;;;;0.73;0.40;;;10.50;99.90;;;;;;5024114;28;20520;-74
2022/09/20 12:13:35;;;;;;;0.97;0.43;;;10.50;99.90;;;;;;5013594;28;21012;-74
2022/09/20 12:16:06;;;;;;;0.70;0.30;;;10.50;99.90;;;;;;5032929;28;20573;-74
2022/09/20 12:18:46;;;;;;;0.50;0.30;;;10.40;99.90;;;;;;5014421;28;20567;-74
2022/09/20 12:21:16;;;;;;;0.40;0.40;;;10.50;99.90;;;;;;5028556;28;20540;-74
2022/09/20 12:24:10;;;;;;;0.60;0.50;;;10.70;99.90;;;;;;5037370;28;20457;-74
2022/09/20 12:26:46;;;;;;;0.60;0.40;;;11.30;99.90;;;;;;5024582;28;20987;-74
2022/09/20 12:29:49;;;;;;;1.90;0.50;;;11.50;99.90;;;;;;5027904;28;20497;-74
2022/09/20 12:32:53;;;;;;;0.50;0.50;;;11.70;99.90;;;;;;5034294;28;20524;-74
2022/09/20 12:35:58;;;;;;;3.77;0.60;;;12.20;99.90;;;;;;5030337;27;20485;-74
2022/09/20 12:38:39;;;;;;;2.83;0.50;;;12.40;99.90;;;;;;5020031;28;20608;-74
2022/09/20 12:41:10;;;;;;;1.90;1.80;;;12.70;99.90;;;;;;5023746;28;20857;-74
2022/09/20 12:43:47;;;;;;;3.03;0.60;;;12.90;99.90;;;;;;5032288;27;20668;-74
2022/09/20 12:46:21;;;;;;;0.50;0.30;;;12.80;99.90;;;;;;5022862;28;20562;-74
2022/09/20 12:48:50;;;;;;;2.17;0.50;;;12.90;99.90;;;;;;5023707;28;20481;-74
2022/09/20 12:54:10;;;;;;;1.37;0.53;;;13.50;99.90;;;;;;5023473;28;20519;-74
2022/09/20 12:56:40;;;;;;;4.43;0.47;;;13.80;99.90;;;;;;5022779;28;21040;-74
2022/09/20 12:59:22;;;;;;;1.07;0.50;;;14.20;99.90;;;;;;5022766;28;20550;-74
2022/09/20 13:01:49;;;;;;;0.80;0.50;;;13.80;99.90;;;;;;5022467;28;20479;-74
2022/09/20 13:04:54;;;;;;;2.50;0.50;;;13.40;99.90;;;;;;5023276;28;20559;-74
2022/09/20 13:07:53;;;;;;;0.80;0.50;;;13.00;99.90;;;;;;5018282;28;20479;-73
2022/09/20 13:10:40;;;;;;;0.80;0.50;;;12.70;99.90;;;;;;5021614;28;21073;-74
2022/09/20 13:13:26;;;;;;;1.50;0.47;;;12.50;99.90;;;;;;5021932;28;20546;-74
2022/09/20 13:15:55;;;;;;;1.87;0.47;;;12.60;99.90;;;;;;5025373;28;20477;-74
2022/09/20 13:18:25;;;;;;;1.07;0.70;;;12.70;99.90;;;;;;5022924;28;20564;-74
2022/09/20 13:20:52;;;;;;;2.60;0.60;;;13.00;99.90;;;;;;5027934;28;20924;-74
2022/09/20 13:23:26;;;;;;;1.90;0.50;;;12.70;99.90;;;;;;5023763;28;20582;-74
2022/09/20 13:25:56;;;;;;;1.33;0.70;;;12.60;99.90;;;;;;5029984;28;20467;-74
2022/09/20 13:28:39;;;;;;;2.30;0.80;;;12.40;99.90;;;;;;5042612;28;20475;-74
2022/09/20 13:31:34;;;;;;;0.70;0.50;;;12.20;99.90;;;;;;5033298;28;20571;-74
2022/09/20 13:34:22;;;;;;;1.73;0.60;;;12.10;99.90;;;;;;5035328;28;20451;-74
2022/09/20 13:36:53;;;;;;;0.70;0.60;;;12.10;99.90;;;;;;5028179;28;21102;-74
2022/09/20 13:39:33;;;;;;;0.90;0.50;;;12.50;99.90;;;;;;5022845;28;21109;-74
2022/09/20 13:42:05;;;;;;;0.87;0.60;;;13.10;99.90;;;;;;5022586;28;20460;-74
2022/09/20 13:44:33;;;;;;;0.90;0.60;;;13.40;99.90;;;;;;5012795;28;20460;-74
2022/09/20 13:47:00;;;;;;;3.70;0.60;;;13.40;99.90;;;;;;5023322;28;20464;-74
2022/09/20 13:49:31;;;;;;;1.43;0.70;;;13.60;99.90;;;;;;5021257;28;20539;-75
2022/09/20 13:52:21;;;;;;;0.70;0.60;;;13.40;99.90;;;;;;5016482;28;20492;-76
2022/09/20 13:54:49;;;;;;;1.90;0.57;;;12.90;99.90;;;;;;5030410;28;20453;-74
2022/09/20 13:57:21;;;;;;;3.43;1.17;;;12.90;99.90;;;;;;5021014;28;20555;-75
2022/09/20 13:59:49;;;;;;;1.67;0.60;;;12.50;99.90;;;;;;5021250;28;20476;-75
2022/09/20 14:02:22;;;;;;;1.60;0.70;;;12.30;99.90;;;;;;5022156;28;20547;-75
2022/09/20 14:04:50;;;;;;;2.00;0.80;;;12.20;99.90;;;;;;5021393;28;20464;-74
2022/09/20 14:07:17;;;;;;;0.50;0.40;;;11.90;99.90;;;;;;5017108;28;20545;-74
2022/09/20 14:09:45;;;;;;;0.93;0.50;;;11.50;99.90;;;;;;5018959;28;20561;-74
2022/09/20 14:12:14;;;;;;;1.80;0.70;;;11.20;99.90;;;;;;5023048;28;20863;-74
2022/09/20 14:14:41;;;;;;;0.90;0.70;;;11.10;99.90;;;;;;5021876;28;20544;-74
2022/09/20 14:17:09;;;;;;;2.97;0.53;;;11.00;99.90;;;;;;5021845;28;20597;-74
2022/09/20 14:19:41;;;;;;;1.03;0.60;;;10.90;99.90;;;;;;5021018;28;20601;-74
2022/09/20 14:22:13;;;;;;;0.80;0.63;;;10.80;99.90;;;;;;5023361;28;20457;-74
2022/09/20 14:24:40;;;;;;;0.83;0.50;;;10.70;99.90;;;;;;5020331;28;20553;-74
2022/09/20 14:27:19;;;;;;;0.63;0.60;;;10.60;99.90;;;;;;5039989;28;20528;-74
2022/09/20 14:29:48;;;;;;;0.80;0.60;;;10.40;99.90;;;;;;5034665;28;20549;-74
2022/09/20 14:32:35;;;;;;;1.27;0.53;;;10.30;99.90;;;;;;5046712;28;20484;-74
2022/09/20 14:35:06;;;;;;;1.63;0.80;;;10.20;99.90;;;;;;5037879;28;21073;-74
2022/09/20 14:37:41;;;;;;;1.73;0.70;;;10.40;99.90;;;;;;5043386;28;20483;-74
2022/09/20 14:40:19;;;;;;;2.57;0.80;;;10.60;99.90;;;;;;5046600;28;20530;-74
2022/09/20 14:42:50;;;;;;;0.87;0.80;;;10.80;99.90;;;;;;5033152;28;21125;-75